sensor_id;sensor_type;location;lat;lon;timestamp;pressure;altitude;pressure_sealevel;temperature;humidity
7433;BME280;32233;49.500;7.764;2023-06-01T00:01:28;98727.16;;;13.53;70.80
7433;BME280;32233;49.500;7.764;2023-06-01T00:03:59;98725.81;;;13.37;74.02
7433;BME280;32233;49.500;7.764;2023-06-01T00:06:26;98726.56;;;13.06;74.47
7433;BME280;32233;49.500;7.764;2023-06-01T00:08:56;98728.19;;;13.01;75.54
7433;BME280;32233;49.500;7.764;2023-06-01T00:11:24;98731.63;;;13.14;75.26
7433;BME280;32233;49.500;7.764;2023-06-01T00:13:52;98731.53;;;12.83;76.66
7433;BME280;32233;49.500;7.764;2023-06-01T00:16:19;98730.72;;;12.76;79.51
7433;BME280;32233;49.500;7.764;2023-06-01T00:18:45;98729.31;;;12.67;79.99
7433;BME280;32233;49.500;7.764;2023-06-01T00:21:12;98728.47;;;12.79;79.69
7433;BME280;32233;49.500;7.764;2023-06-01T00:23:39;98722.00;;;12.62;79.81
7433;BME280;32233;49.500;7.764;2023-06-01T00:26:08;98723.22;;;12.59;80.64
7433;BME280;32233;49.500;7.764;2023-06-01T00:28:35;98725.50;;;12.43;80.62
7433;BME280;32233;49.500;7.764;2023-06-01T00:31:01;98723.88;;;12.42;81.43
7433;BME280;32233;49.500;7.764;2023-06-01T00:33:28;98727.34;;;12.22;82.99
7433;BME280;32233;49.500;7.764;2023-06-01T00:35:56;98721.25;;;12.08;84.32
7433;BME280;32233;49.500;7.764;2023-06-01T00:38:23;98716.72;;;11.96;85.57
7433;BME280;32233;49.500;7.764;2023-06-01T00:40:49;98717.34;;;11.91;86.05
7433;BME280;32233;49.500;7.764;2023-06-01T00:43:18;98724.66;;;11.82;86.27
7433;BME280;32233;49.500;7.764;2023-06-01T00:45:44;98722.22;;;11.81;87.06
7433;BME280;32233;49.500;7.764;2023-06-01T00:48:12;98716.91;;;11.81;87.67
7433;BME280;32233;49.500;7.764;2023-06-01T00:50:41;98717.72;;;11.75;86.38
7433;BME280;32233;49.500;7.764;2023-06-01T00:53:15;98717.06;;;11.53;88.05
7433;BME280;32233;49.500;7.764;2023-06-01T00:55:43;98715.25;;;11.60;88.02
7433;BME280;32233;49.500;7.764;2023-06-01T00:58:11;98712.38;;;11.55;89.09
7433;BME280;32233;49.500;7.764;2023-06-01T01:00:38;98712.19;;;11.63;88.81
7433;BME280;32233;49.500;7.764;2023-06-01T01:03:06;98707.94;;;11.75;86.66
7433;BME280;32233;49.500;7.764;2023-06-01T01:05:37;98715.47;;;11.65;87.90
7433;BME280;32233;49.500;7.764;2023-06-01T01:11:09;98715.63;;;11.44;90.16
7433;BME280;32233;49.500;7.764;2023-06-01T01:13:46;98718.03;;;11.32;90.89
7433;BME280;32233;49.500;7.764;2023-06-01T01:16:24;98718.81;;;11.19;92.41
7433;BME280;32233;49.500;7.764;2023-06-01T01:22:25;98723.84;;;11.07;93.58
7433;BME280;32233;49.500;7.764;2023-06-01T01:27:41;98725.59;;;10.87;95.50
7433;BME280;32233;49.500;7.764;2023-06-01T01:30:11;98730.47;;;10.83;95.24
7433;BME280;32233;49.500;7.764;2023-06-01T01:32:40;98727.59;;;10.78;95.76
7433;BME280;32233;49.500;7.764;2023-06-01T01:35:09;98723.88;;;10.66;97.44
7433;BME280;32233;49.500;7.764;2023-06-01T01:37:35;98731.81;;;10.66;96.92
7433;BME280;32233;49.500;7.764;2023-06-01T01:40:02;98732.41;;;10.68;97.40
7433;BME280;32233;49.500;7.764;2023-06-01T01:42:29;98726.03;;;10.56;98.56
7433;BME280;32233;49.500;7.764;2023-06-01T01:44:56;98725.28;;;10.62;97.41
7433;BME280;32233;49.500;7.764;2023-06-01T01:47:38;98728.50;;;10.57;97.25
7433;BME280;32233;49.500;7.764;2023-06-01T01:50:10;98717.66;;;10.52;97.41
7433;BME280;32233;49.500;7.764;2023-06-01T01:52:39;98725.94;;;10.43;98.64
7433;BME280;32233;49.500;7.764;2023-06-01T01:55:08;98730.38;;;10.35;98.72
7433;BME280;32233;49.500;7.764;2023-06-01T01:57:35;98729.78;;;10.40;98.73
7433;BME280;32233;49.500;7.764;2023-06-01T02:00:04;98719.00;;;10.35;98.92
7433;BME280;32233;49.500;7.764;2023-06-01T02:02:38;98719.13;;;10.27;100.00
7433;BME280;32233;49.500;7.764;2023-06-01T02:05:05;98717.41;;;10.19;100.00
7433;BME280;32233;49.500;7.764;2023-06-01T02:07:32;98716.16;;;10.15;99.97
7433;BME280;32233;49.500;7.764;2023-06-01T02:10:03;98722.22;;;10.09;100.00
7433;BME280;32233;49.500;7.764;2023-06-01T02:12:31;98719.81;;;10.14;100.00
7433;BME280;32233;49.500;7.764;2023-06-01T02:14:57;98723.41;;;10.06;100.00
7433;BME280;32233;49.500;7.764;2023-06-01T02:17:24;98721.56;;;10.00;100.00
7433;BME280;32233;49.500;7.764;2023-06-01T02:19:53;98717.66;;;9.96;100.00
7433;BME280;32233;49.500;7.764;2023-06-01T02:22:19;98716.13;;;9.87;100.00
7433;BME280;32233;49.500;7.764;2023-06-01T02:24:46;98715.53;;;9.85;100.00
7433;BME280;32233;49.500;7.764;2023-06-01T02:27:13;98719.22;;;9.90;100.00
7433;BME280;32233;49.500;7.764;2023-06-01T02:29:40;98710.63;;;9.82;100.00
7433;BME280;32233;49.500;7.764;2023-06-01T02:32:07;98708.34;;;9.79;100.00
7433;BME280;32233;49.500;7.764;2023-06-01T02:34:34;98709.28;;;9.71;100.00
7433;BME280;32233;49.500;7.764;2023-06-01T02:37:02;98708.94;;;9.74;100.00
7433;BME280;32233;49.500;7.764;2023-06-01T02:39:31;98710.06;;;9.65;100.00
7433;BME280;32233;49.500;7.764;2023-06-01T02:41:57;98707.63;;;9.63;100.00
7433;BME280;32233;49.500;7.764;2023-06-01T02:44:24;98701.09;;;9.59;100.00
7433;BME280;32233;49.500;7.764;2023-06-01T02:46:51;98709.38;;;9.56;100.00
7433;BME280;32233;49.500;7.764;2023-06-01T02:49:17;98704.09;;;9.56;100.00
7433;BME280;32233;49.500;7.764;2023-06-01T02:51:44;98701.81;;;9.53;100.00
7433;BME280;32233;49.500;7.764;2023-06-01T02:54:17;98701.22;;;9.51;100.00
7433;BME280;32233;49.500;7.764;2023-06-01T02:56:44;98703.66;;;9.53;100.00
7433;BME280;32233;49.500;7.764;2023-06-01T02:59:22;98708.25;;;9.44;100.00
7433;BME280;32233;49.500;7.764;2023-06-01T03:01:54;98712.16;;;9.33;100.00
7433;BME280;32233;49.500;7.764;2023-06-01T03:04:21;98709.91;;;9.30;100.00
7433;BME280;32233;49.500;7.764;2023-06-01T03:06:49;98702.50;;;9.40;100.00
7433;BME280;32233;49.500;7.764;2023-06-01T03:09:35;98707.34;;;9.58;100.00
7433;BME280;32233;49.500;7.764;2023-06-01T03:12:33;98708.47;;;9.49;100.00
7433;BME280;32233;49.500;7.764;2023-06-01T03:15:00;98705.97;;;9.41;100.00
7433;BME280;32233;49.500;7.764;2023-06-01T03:17:27;98705.84;;;9.28;100.00
7433;BME280;32233;49.500;7.764;2023-06-01T03:19:53;98718.66;;;9.31;100.00
7433;BME280;32233;49.500;7.764;2023-06-01T03:22:22;98703.44;;;9.33;100.00
7433;BME280;32233;49.500;7.764;2023-06-01T03:24:48;98714.56;;;9.28;100.00
7433;BME280;32233;49.500;7.764;2023-06-01T03:27:19;98709.31;;;9.13;100.00
7433;BME280;32233;49.500;7.764;2023-06-01T03:29:46;98716.50;;;9.20;100.00
7433;BME280;32233;49.500;7.764;2023-06-01T03:32:13;98711.09;;;9.28;100.00
7433;BME280;32233;49.500;7.764;2023-06-01T03:34:41;98724.47;;;9.26;100.00
7433;BME280;32233;49.500;7.764;2023-06-01T03:37:08;98717.22;;;9.13;100.00
7433;BME280;32233;49.500;7.764;2023-06-01T03:39:34;98725.13;;;9.13;100.00
7433;BME280;32233;49.500;7.764;2023-06-01T03:42:05;98723.16;;;9.15;100.00
7433;BME280;32233;49.500;7.764;2023-06-01T03:44:31;98722.13;;;9.16;100.00
7433;BME280;32233;49.500;7.764;2023-06-01T03:46:58;98725.59;;;9.17;100.00
7433;BME280;32233;49.500;7.764;2023-06-01T03:49:25;98729.22;;;9.16;100.00
7433;BME280;32233;49.500;7.764;2023-06-01T03:51:51;98720.97;;;9.19;100.00
7433;BME280;32233;49.500;7.764;2023-06-01T03:54:19;98725.66;;;9.24;100.00
7433;BME280;32233;49.500;7.764;2023-06-01T03:56:47;98726.13;;;9.27;100.00
7433;BME280;32233;49.500;7.764;2023-06-01T03:59:14;98725.63;;;9.38;100.00
7433;BME280;32233;49.500;7.764;2023-06-01T04:01:41;98723.16;;;9.37;100.00
7433;BME280;32233;49.500;7.764;2023-06-01T04:04:10;98732.25;;;9.34;100.00
7433;BME280;32233;49.500;7.764;2023-06-01T04:06:39;98726.25;;;9.40;100.00
7433;BME280;32233;49.500;7.764;2023-06-01T04:09:07;98729.91;;;9.39;100.00
7433;BME280;32233;49.500;7.764;2023-06-01T04:11:35;98732.03;;;9.51;100.00
7433;BME280;32233;49.500;7.764;2023-06-01T04:14:02;98730.84;;;9.53;100.00
7433;BME280;32233;49.500;7.764;2023-06-01T04:16:29;98727.91;;;9.63;100.00
7433;BME280;32233;49.500;7.764;2023-06-01T04:18:56;98731.25;;;9.72;100.00
7433;BME280;32233;49.500;7.764;2023-06-01T04:21:26;98730.59;;;9.70;100.00
7433;BME280;32233;49.500;7.764;2023-06-01T04:23:52;98730.47;;;9.78;100.00
7433;BME280;32233;49.500;7.764;2023-06-01T04:26:20;98746.31;;;9.78;100.00
7433;BME280;32233;49.500;7.764;2023-06-01T04:28:47;98741.72;;;9.86;100.00
7433;BME280;32233;49.500;7.764;2023-06-01T04:31:16;98741.22;;;9.98;100.00
7433;BME280;32233;49.500;7.764;2023-06-01T04:33:47;98742.41;;;10.16;100.00
7433;BME280;32233;49.500;7.764;2023-06-01T04:36:22;98736.44;;;10.29;100.00
7433;BME280;32233;49.500;7.764;2023-06-01T04:38:53;98749.59;;;10.51;99.85
7433;BME280;32233;49.500;7.764;2023-06-01T04:41:22;98745.81;;;10.66;97.73
7433;BME280;32233;49.500;7.764;2023-06-01T04:43:49;98748.44;;;10.95;94.96
7433;BME280;32233;49.500;7.764;2023-06-01T04:46:21;98745.53;;;10.89;94.84
7433;BME280;32233;49.500;7.764;2023-06-01T04:48:53;98748.19;;;10.89;96.34
7433;BME280;32233;49.500;7.764;2023-06-01T04:51:21;98750.97;;;11.16;94.25
7433;BME280;32233;49.500;7.764;2023-06-01T04:53:51;98750.03;;;11.50;91.79
7433;BME280;32233;49.500;7.764;2023-06-01T04:56:22;98740.91;;;11.53;92.05
7433;BME280;32233;49.500;7.764;2023-06-01T04:58:58;98737.31;;;11.87;90.01
7433;BME280;32233;49.500;7.764;2023-06-01T05:01:28;98739.56;;;11.90;89.75
7433;BME280;32233;49.500;7.764;2023-06-01T05:03:56;98734.44;;;11.82;90.61
7433;BME280;32233;49.500;7.764;2023-06-01T05:06:24;98732.84;;;11.94;89.58
7433;BME280;32233;49.500;7.764;2023-06-01T05:08:52;98740.19;;;11.99;89.77
7433;BME280;32233;49.500;7.764;2023-06-01T05:11:18;98741.59;;;12.28;90.60
7433;BME280;32233;49.500;7.764;2023-06-01T05:13:45;98739.13;;;12.53;87.87
7433;BME280;32233;49.500;7.764;2023-06-01T05:16:12;98735.22;;;12.69;88.85
7433;BME280;32233;49.500;7.764;2023-06-01T05:18:39;98739.47;;;12.83;86.70
7433;BME280;32233;49.500;7.764;2023-06-01T05:21:08;98734.06;;;13.16;87.32
7433;BME280;32233;49.500;7.764;2023-06-01T05:23:34;98743.53;;;14.57;75.33
7433;BME280;32233;49.500;7.764;2023-06-01T05:26:01;98739.22;;;16.31;68.64
7433;BME280;32233;49.500;7.764;2023-06-01T05:28:34;98735.66;;;16.38;65.40
7433;BME280;32233;49.500;7.764;2023-06-01T05:31:03;98733.56;;;15.74;70.38
7433;BME280;32233;49.500;7.764;2023-06-01T05:33:35;98739.69;;;16.40;65.78
7433;BME280;32233;49.500;7.764;2023-06-01T05:36:03;98733.25;;;17.12;63.90
7433;BME280;32233;49.500;7.764;2023-06-01T05:38:30;98730.59;;;17.69;62.48
7433;BME280;32233;49.500;7.764;2023-06-01T05:40:56;98730.59;;;18.14;60.69
7433;BME280;32233;49.500;7.764;2023-06-01T05:43:23;98722.81;;;19.29;55.98
7433;BME280;32233;49.500;7.764;2023-06-01T05:45:50;98724.75;;;19.61;55.66
7433;BME280;32233;49.500;7.764;2023-06-01T05:48:17;98726.69;;;19.92;53.64
7433;BME280;32233;49.500;7.764;2023-06-01T05:50:49;98724.38;;;20.06;53.14
7433;BME280;32233;49.500;7.764;2023-06-01T05:53:16;98725.66;;;19.98;53.04
7433;BME280;32233;49.500;7.764;2023-06-01T05:55:42;98719.50;;;19.71;54.33
7433;BME280;32233;49.500;7.764;2023-06-01T05:58:09;98725.19;;;20.44;51.81
7433;BME280;32233;49.500;7.764;2023-06-01T06:00:36;98727.44;;;20.52;53.19
7433;BME280;32233;49.500;7.764;2023-06-01T06:03:03;98726.75;;;20.77;51.73
7433;BME280;32233;49.500;7.764;2023-06-01T06:05:30;98719.25;;;21.42;50.42
7433;BME280;32233;49.500;7.764;2023-06-01T06:07:57;98720.38;;;21.66;48.27
7433;BME280;32233;49.500;7.764;2023-06-01T06:10:24;98708.00;;;21.96;48.51
7433;BME280;32233;49.500;7.764;2023-06-01T06:12:50;98711.25;;;22.54;46.44
7433;BME280;32233;49.500;7.764;2023-06-01T06:15:17;98708.03;;;21.86;48.15
7433;BME280;32233;49.500;7.764;2023-06-01T06:17:44;98710.13;;;22.60;47.30
7433;BME280;32233;49.500;7.764;2023-06-01T06:20:13;98706.91;;;22.63;48.02
7433;BME280;32233;49.500;7.764;2023-06-01T06:22:42;98702.25;;;22.84;46.75
7433;BME280;32233;49.500;7.764;2023-06-01T06:25:11;98712.31;;;22.53;46.82
7433;BME280;32233;49.500;7.764;2023-06-01T06:27:38;98701.56;;;23.28;44.22
7433;BME280;32233;49.500;7.764;2023-06-01T06:30:05;98703.91;;;22.90;45.32
7433;BME280;32233;49.500;7.764;2023-06-01T06:32:33;98701.06;;;23.21;44.91
7433;BME280;32233;49.500;7.764;2023-06-01T06:35:01;98703.19;;;24.08;41.23
7433;BME280;32233;49.500;7.764;2023-06-01T06:37:28;98697.78;;;23.73;41.91
7433;BME280;32233;49.500;7.764;2023-06-01T06:39:56;98705.03;;;23.78;43.31
7433;BME280;32233;49.500;7.764;2023-06-01T06:42:23;98706.75;;;24.32;40.77
7433;BME280;32233;49.500;7.764;2023-06-01T06:44:49;98699.72;;;24.02;42.17
7433;BME280;32233;49.500;7.764;2023-06-01T06:47:16;98705.00;;;24.17;40.58
7433;BME280;32233;49.500;7.764;2023-06-01T06:49:46;98698.59;;;24.66;39.30
7433;BME280;32233;49.500;7.764;2023-06-01T06:52:12;98696.50;;;25.68;37.07
7433;BME280;32233;49.500;7.764;2023-06-01T06:54:39;98701.81;;;24.92;39.33
7433;BME280;32233;49.500;7.764;2023-06-01T06:57:07;98698.31;;;25.54;38.13
7433;BME280;32233;49.500;7.764;2023-06-01T06:59:34;98697.53;;;25.72;37.32
7433;BME280;32233;49.500;7.764;2023-06-01T07:02:01;98699.50;;;25.48;36.17
7433;BME280;32233;49.500;7.764;2023-06-01T07:04:29;98698.59;;;26.55;35.08
7433;BME280;32233;49.500;7.764;2023-06-01T07:06:55;98690.13;;;26.98;33.82
7433;BME280;32233;49.500;7.764;2023-06-01T07:09:22;98688.41;;;27.02;34.33
7433;BME280;32233;49.500;7.764;2023-06-01T07:11:57;98690.75;;;26.95;34.60
7433;BME280;32233;49.500;7.764;2023-06-01T07:14:24;98684.81;;;27.21;33.07
7433;BME280;32233;49.500;7.764;2023-06-01T07:16:51;98681.06;;;28.11;31.12
7433;BME280;32233;49.500;7.764;2023-06-01T07:19:18;98686.84;;;27.51;31.83
7433;BME280;32233;49.500;7.764;2023-06-01T07:21:44;98684.69;;;27.62;33.17
7433;BME280;32233;49.500;7.764;2023-06-01T07:24:11;98689.25;;;27.89;32.87
7433;BME280;32233;49.500;7.764;2023-06-01T07:26:38;98676.59;;;27.84;32.90
7433;BME280;32233;49.500;7.764;2023-06-01T07:29:04;98686.47;;;29.13;30.68
7433;BME280;32233;49.500;7.764;2023-06-01T07:31:32;98683.19;;;28.85;31.15
7433;BME280;32233;49.500;7.764;2023-06-01T07:34:00;98684.34;;;28.53;31.95
7433;BME280;32233;49.500;7.764;2023-06-01T07:36:26;98682.22;;;29.65;30.17
7433;BME280;32233;49.500;7.764;2023-06-01T07:38:53;98687.00;;;28.36;32.66
7433;BME280;32233;49.500;7.764;2023-06-01T07:41:20;98684.69;;;28.29;32.62
7433;BME280;32233;49.500;7.764;2023-06-01T07:43:47;98687.72;;;28.50;31.67
7433;BME280;32233;49.500;7.764;2023-06-01T07:46:14;98679.09;;;28.03;32.89
7433;BME280;32233;49.500;7.764;2023-06-01T07:48:40;98681.88;;;28.12;32.52
7433;BME280;32233;49.500;7.764;2023-06-01T07:51:07;98682.00;;;28.07;31.68
7433;BME280;32233;49.500;7.764;2023-06-01T07:53:34;98681.50;;;28.58;31.45
7433;BME280;32233;49.500;7.764;2023-06-01T07:56:01;98679.00;;;28.71;31.59
7433;BME280;32233;49.500;7.764;2023-06-01T07:58:30;98689.09;;;28.39;31.43
7433;BME280;32233;49.500;7.764;2023-06-01T08:00:57;98679.63;;;28.76;31.73
7433;BME280;32233;49.500;7.764;2023-06-01T08:03:23;98670.50;;;28.72;31.56
7433;BME280;32233;49.500;7.764;2023-06-01T08:05:52;98672.59;;;29.84;30.62
7433;BME280;32233;49.500;7.764;2023-06-01T08:08:25;98668.22;;;29.23;31.79
7433;BME280;32233;49.500;7.764;2023-06-01T08:10:52;98673.59;;;28.88;32.55
7433;BME280;32233;49.500;7.764;2023-06-01T08:13:20;98670.81;;;29.19;31.63
7433;BME280;32233;49.500;7.764;2023-06-01T08:15:47;98661.88;;;28.79;32.56
7433;BME280;32233;49.500;7.764;2023-06-01T08:18:15;98659.91;;;28.31;32.13
7433;BME280;32233;49.500;7.764;2023-06-01T08:20:42;98654.47;;;28.62;31.60
7433;BME280;32233;49.500;7.764;2023-06-01T08:23:10;98653.19;;;29.34;31.08
7433;BME280;32233;49.500;7.764;2023-06-01T08:25:36;98663.03;;;28.38;31.96
7433;BME280;32233;49.500;7.764;2023-06-01T08:28:03;98653.47;;;29.06;29.75
7433;BME280;32233;49.500;7.764;2023-06-01T08:30:30;98660.44;;;28.10;32.15
7433;BME280;32233;49.500;7.764;2023-06-01T08:32:57;98661.72;;;27.46;34.34
7433;BME280;32233;49.500;7.764;2023-06-01T08:35:24;98652.75;;;26.40;35.05
7433;BME280;32233;49.500;7.764;2023-06-01T08:37:51;98654.94;;;25.59;36.12
7433;BME280;32233;49.500;7.764;2023-06-01T08:40:18;98661.44;;;25.39;37.24
7433;BME280;32233;49.500;7.764;2023-06-01T08:42:59;98654.69;;;25.74;35.99
7433;BME280;32233;49.500;7.764;2023-06-01T08:45:26;98649.28;;;25.74;36.27
7433;BME280;32233;49.500;7.764;2023-06-01T08:47:53;98654.94;;;25.78;35.48
7433;BME280;32233;49.500;7.764;2023-06-01T08:50:22;98656.63;;;25.17;37.27
7433;BME280;32233;49.500;7.764;2023-06-01T08:52:49;98657.56;;;25.26;37.04
7433;BME280;32233;49.500;7.764;2023-06-01T08:55:23;98637.63;;;25.60;36.90
7433;BME280;32233;49.500;7.764;2023-06-01T08:57:50;98647.56;;;25.27;38.17
7433;BME280;32233;49.500;7.764;2023-06-01T09:00:17;98657.22;;;25.14;37.06
7433;BME280;32233;49.500;7.764;2023-06-01T09:02:44;98655.53;;;24.75;39.69
7433;BME280;32233;49.500;7.764;2023-06-01T09:05:11;98658.13;;;25.04;37.51
7433;BME280;32233;49.500;7.764;2023-06-01T09:07:39;98656.53;;;25.03;37.51
7433;BME280;32233;49.500;7.764;2023-06-01T09:10:07;98649.50;;;24.59;38.77
7433;BME280;32233;49.500;7.764;2023-06-01T09:12:34;98639.78;;;24.82;38.06
7433;BME280;32233;49.500;7.764;2023-06-01T09:17:30;98652.25;;;24.54;37.83
7433;BME280;32233;49.500;7.764;2023-06-01T09:19:56;98637.13;;;24.24;38.44
7433;BME280;32233;49.500;7.764;2023-06-01T09:22:23;98644.34;;;24.34;38.05
7433;BME280;32233;49.500;7.764;2023-06-01T09:24:57;98639.22;;;24.32;37.71
7433;BME280;32233;49.500;7.764;2023-06-01T09:27:25;98638.66;;;24.35;37.76
7433;BME280;32233;49.500;7.764;2023-06-01T09:29:53;98639.03;;;24.23;37.79
7433;BME280;32233;49.500;7.764;2023-06-01T09:32:20;98632.94;;;24.13;37.35
7433;BME280;32233;49.500;7.764;2023-06-01T09:34:50;98641.38;;;24.06;37.34
7433;BME280;32233;49.500;7.764;2023-06-01T09:37:17;98633.50;;;24.10;38.26
7433;BME280;32233;49.500;7.764;2023-06-01T09:39:44;98623.44;;;24.15;37.57
7433;BME280;32233;49.500;7.764;2023-06-01T09:42:10;98631.78;;;24.19;36.97
7433;BME280;32233;49.500;7.764;2023-06-01T09:44:41;98634.78;;;24.17;37.39
7433;BME280;32233;49.500;7.764;2023-06-01T09:47:09;98633.56;;;24.29;36.77
7433;BME280;32233;49.500;7.764;2023-06-01T09:49:39;98634.69;;;24.28;37.12
7433;BME280;32233;49.500;7.764;2023-06-01T09:54:42;98628.47;;;24.27;37.19
7433;BME280;32233;49.500;7.764;2023-06-01T09:57:09;98629.91;;;24.19;37.13
7433;BME280;32233;49.500;7.764;2023-06-01T09:59:43;98629.22;;;24.09;37.07
7433;BME280;32233;49.500;7.764;2023-06-01T10:02:18;98637.00;;;24.87;35.48
7433;BME280;32233;49.500;7.764;2023-06-01T10:04:48;98628.72;;;24.98;36.71
7433;BME280;32233;49.500;7.764;2023-06-01T10:07:17;98634.91;;;25.22;35.12
7433;BME280;32233;49.500;7.764;2023-06-01T10:09:49;98626.94;;;24.69;36.07
7433;BME280;32233;49.500;7.764;2023-06-01T10:12:17;98635.22;;;24.01;37.41
7433;BME280;32233;49.500;7.764;2023-06-01T10:14:44;98635.84;;;24.16;37.05
7433;BME280;32233;49.500;7.764;2023-06-01T10:17:10;98631.69;;;24.58;37.68
7433;BME280;32233;49.500;7.764;2023-06-01T10:19:38;98629.25;;;24.57;37.22
7433;BME280;32233;49.500;7.764;2023-06-01T10:22:05;98615.53;;;24.24;37.37
7433;BME280;32233;49.500;7.764;2023-06-01T10:24:34;98612.44;;;24.36;36.23
7433;BME280;32233;49.500;7.764;2023-06-01T10:34:38;98605.84;;;24.71;37.34
7433;BME280;32233;49.500;7.764;2023-06-01T10:37:16;98608.88;;;24.64;36.09
7433;BME280;32233;49.500;7.764;2023-06-01T10:42:48;98605.81;;;25.14;37.85
7433;BME280;32233;49.500;7.764;2023-06-01T10:45:40;98609.69;;;25.45;36.21
7433;BME280;32233;49.500;7.764;2023-06-01T10:48:55;98601.44;;;25.69;35.78
7433;BME280;32233;49.500;7.764;2023-06-01T10:51:27;98594.00;;;25.80;35.68
7433;BME280;32233;49.500;7.764;2023-06-01T10:54:26;98595.44;;;25.73;36.59
7433;BME280;32233;49.500;7.764;2023-06-01T11:03:03;98579.91;;;27.16;34.08
7433;BME280;32233;49.500;7.764;2023-06-01T11:13:21;98577.13;;;26.93;34.05
7433;BME280;32233;49.500;7.764;2023-06-01T11:21:16;98573.88;;;26.41;34.05
7433;BME280;32233;49.500;7.764;2023-06-01T11:23:49;98570.50;;;26.50;34.35
7433;BME280;32233;49.500;7.764;2023-06-01T11:26:18;98572.75;;;26.84;33.64
7433;BME280;32233;49.500;7.764;2023-06-01T11:28:46;98566.28;;;26.93;32.87
7433;BME280;32233;49.500;7.764;2023-06-01T11:31:15;98570.44;;;27.27;32.31
7433;BME280;32233;49.500;7.764;2023-06-01T11:34:12;98569.13;;;27.25;32.81
7433;BME280;32233;49.500;7.764;2023-06-01T11:36:45;98558.63;;;27.54;32.05
7433;BME280;32233;49.500;7.764;2023-06-01T11:39:18;98554.31;;;28.47;31.61
7433;BME280;32233;49.500;7.764;2023-06-01T11:41:52;98544.34;;;28.99;30.33
7433;BME280;32233;49.500;7.764;2023-06-01T11:44:19;98545.88;;;29.35;30.25
7433;BME280;32233;49.500;7.764;2023-06-01T11:46:53;98536.72;;;30.13;27.74
7433;BME280;32233;49.500;7.764;2023-06-01T11:49:20;98534.72;;;30.60;26.78
7433;BME280;32233;49.500;7.764;2023-06-01T11:51:46;98535.50;;;30.01;26.81
7433;BME280;32233;49.500;7.764;2023-06-01T11:54:13;98536.38;;;29.84;28.37
7433;BME280;32233;49.500;7.764;2023-06-01T11:56:40;98539.94;;;29.59;28.38
7433;BME280;32233;49.500;7.764;2023-06-01T11:59:07;98533.56;;;29.37;29.96
7433;BME280;32233;49.500;7.764;2023-06-01T12:01:45;98535.69;;;29.88;28.59
7433;BME280;32233;49.500;7.764;2023-06-01T12:04:14;98527.94;;;29.43;28.72
7433;BME280;32233;49.500;7.764;2023-06-01T12:06:41;98525.56;;;29.06;30.01
7433;BME280;32233;49.500;7.764;2023-06-01T12:09:08;98529.56;;;28.74;29.95
7433;BME280;32233;49.500;7.764;2023-06-01T12:11:35;98523.31;;;29.26;30.80
7433;BME280;32233;49.500;7.764;2023-06-01T12:14:03;98525.38;;;28.94;31.01
7433;BME280;32233;49.500;7.764;2023-06-01T12:16:52;98519.03;;;29.07;30.69
7433;BME280;32233;49.500;7.764;2023-06-01T12:19:20;98511.97;;;28.80;29.46
7433;BME280;32233;49.500;7.764;2023-06-01T12:21:52;98508.28;;;28.94;28.11
7433;BME280;32233;49.500;7.764;2023-06-01T12:24:31;98512.13;;;29.27;27.66
7433;BME280;32233;49.500;7.764;2023-06-01T12:27:02;98505.13;;;30.11;27.01
7433;BME280;32233;49.500;7.764;2023-06-01T12:29:42;98498.03;;;30.49;26.32
7433;BME280;32233;49.500;7.764;2023-06-01T12:32:11;98496.31;;;31.28;26.39
7433;BME280;32233;49.500;7.764;2023-06-01T12:34:39;98493.06;;;31.14;26.39
7433;BME280;32233;49.500;7.764;2023-06-01T12:37:17;98484.25;;;30.75;27.28
7433;BME280;32233;49.500;7.764;2023-06-01T12:39:54;98487.63;;;30.93;26.84
7433;BME280;32233;49.500;7.764;2023-06-01T12:42:38;98488.78;;;30.92;27.67
7433;BME280;32233;49.500;7.764;2023-06-01T12:45:07;98488.94;;;30.45;25.80
7433;BME280;32233;49.500;7.764;2023-06-01T12:47:41;98489.66;;;29.56;27.64
7433;BME280;32233;49.500;7.764;2023-06-01T12:50:10;98486.31;;;29.42;28.25
7433;BME280;32233;49.500;7.764;2023-06-01T12:52:38;98492.69;;;28.33;27.60
7433;BME280;32233;49.500;7.764;2023-06-01T12:55:06;98494.91;;;28.23;30.26
7433;BME280;32233;49.500;7.764;2023-06-01T12:57:34;98491.13;;;27.61;28.82
7433;BME280;32233;49.500;7.764;2023-06-01T13:00:02;98487.72;;;27.78;28.51
7433;BME280;32233;49.500;7.764;2023-06-01T13:02:31;98488.09;;;27.32;29.53
7433;BME280;32233;49.500;7.764;2023-06-01T13:04:59;98489.56;;;27.38;33.37
7433;BME280;32233;49.500;7.764;2023-06-01T13:07:25;98479.72;;;27.06;32.89
7433;BME280;32233;49.500;7.764;2023-06-01T13:09:52;98483.25;;;26.84;31.75
7433;BME280;32233;49.500;7.764;2023-06-01T13:12:19;98482.41;;;26.61;32.57
7433;BME280;32233;49.500;7.764;2023-06-01T13:14:46;98482.31;;;26.66;32.50
7433;BME280;32233;49.500;7.764;2023-06-01T13:17:12;98481.22;;;26.53;33.29
7433;BME280;32233;49.500;7.764;2023-06-01T13:19:39;98479.13;;;26.36;32.42
7433;BME280;32233;49.500;7.764;2023-06-01T13:22:09;98474.06;;;26.71;29.18
7433;BME280;32233;49.500;7.764;2023-06-01T13:24:36;98481.34;;;26.34;30.28
7433;BME280;32233;49.500;7.764;2023-06-01T13:27:06;98481.56;;;26.10;32.45
7433;BME280;32233;49.500;7.764;2023-06-01T13:29:33;98477.44;;;26.27;30.97
7433;BME280;32233;49.500;7.764;2023-06-01T13:32:00;98472.22;;;26.30;30.40
7433;BME280;32233;49.500;7.764;2023-06-01T13:34:27;98473.00;;;26.58;28.80
7433;BME280;32233;49.500;7.764;2023-06-01T13:36:54;98469.56;;;26.66;30.03
7433;BME280;32233;49.500;7.764;2023-06-01T13:39:22;98483.66;;;26.55;32.13
7433;BME280;32233;49.500;7.764;2023-06-01T13:41:49;98472.88;;;26.63;30.17
7433;BME280;32233;49.500;7.764;2023-06-01T13:44:15;98467.53;;;26.22;28.89
7433;BME280;32233;49.500;7.764;2023-06-01T13:46:44;98465.78;;;26.40;30.18
7433;BME280;32233;49.500;7.764;2023-06-01T13:49:11;98466.00;;;26.16;32.01
7433;BME280;32233;49.500;7.764;2023-06-01T13:51:38;98469.19;;;26.32;28.71
7433;BME280;32233;49.500;7.764;2023-06-01T13:54:06;98465.28;;;26.24;31.22
7433;BME280;32233;49.500;7.764;2023-06-01T13:56:33;98470.13;;;26.27;29.58
7433;BME280;32233;49.500;7.764;2023-06-01T13:58:59;98459.97;;;26.33;29.86
7433;BME280;32233;49.500;7.764;2023-06-01T14:01:26;98457.16;;;26.38;30.01
7433;BME280;32233;49.500;7.764;2023-06-01T14:03:53;98459.34;;;26.36;32.43